Time;durP1;ratioP1;P1;durP2;ratioP2;P2;SDS_P1;SDS_P2;PMS_P1;PMS_P2;Temp;Humidity;BMP_temperature;BMP_pressure;BME280_temperature;BME280_humidity;BME280_pressure;Samples;Min_cycle;Max_cycle;Signal;HPM_P1;HPM_P2
2022/07/09 00:00:16;;;;;;;141.68;94.71;;;;;;;23.33;45.04;100302.41;457223;114;922976;-74
2022/07/09 00:01:20;;;;;;;151.96;96.69;;;;;;;23.31;45.16;100302.75;457226;115;922599;-75
2022/07/09 00:02:23;;;;;;;154.76;98.94;;;;;;;23.32;45.23;100309.13;457318;116;922730;-75
2022/07/09 00:03:27;;;;;;;152.75;95.36;;;;;;;23.31;45.25;100310.27;457221;115;922550;-75
2022/07/09 00:04:30;;;;;;;151.86;96.85;;;;;;;23.31;45.28;100304.70;457243;115;930536;-75
2022/07/09 00:05:33;;;;;;;135.13;91.94;;;;;;;23.29;45.25;100299.43;457313;114;922662;-75
2022/07/09 00:06:36;;;;;;;140.04;92.94;;;;;;;23.29;45.26;100302.21;456815;115;922939;-75
2022/07/09 00:07:40;;;;;;;152.57;96.05;;;;;;;23.28;45.33;100292.21;455583;116;922892;-75
2022/07/09 00:08:43;;;;;;;140.84;91.60;;;;;;;23.29;45.31;100297.48;455490;116;922552;-76
2022/07/09 00:09:46;;;;;;;145.98;94.85;;;;;;;23.30;45.29;100301.09;455492;116;930569;-75
2022/07/09 00:10:49;;;;;;;142.39;95.43;;;;;;;23.30;45.29;100292.73;455543;116;922600;-75
2022/07/09 00:11:52;;;;;;;140.86;93.07;;;;;;;23.30;45.26;100298.30;455590;116;922968;-75
2022/07/09 00:12:55;;;;;;;145.83;92.87;;;;;;;23.30;45.27;100292.73;455532;116;922640;-75
2022/07/09 00:13:58;;;;;;;137.64;92.47;;;;;;;23.28;45.26;100293.03;455546;116;931021;-76
2022/07/09 00:15:01;;;;;;;143.36;93.59;;;;;;;23.28;45.33;100298.60;457039;116;922531;-74
2022/07/09 00:16:05;;;;;;;134.97;91.08;;;;;;;23.29;45.36;100304.99;457339;114;922582;-74
2022/07/09 00:17:08;;;;;;;145.36;93.26;;;;;;;23.29;45.31;100307.78;457240;115;922960;-74
2022/07/09 00:18:11;;;;;;;142.51;93.79;;;;;;;23.29;45.26;100299.43;457260;115;930504;-74
2022/07/09 00:19:14;;;;;;;139.67;90.68;;;;;;;23.29;45.14;100302.21;457316;116;923111;-74
2022/07/09 00:20:18;;;;;;;135.54;90.76;;;;;;;23.28;45.10;100301.38;457175;115;922586;-75
2022/07/09 00:21:21;;;;;;;138.46;91.69;;;;;;;23.27;45.04;100305.30;457253;115;922559;-74
2022/07/09 00:22:25;;;;;;;139.19;93.82;;;;;;;23.25;45.02;100302.02;457246;115;923081;-74
2022/07/09 00:23:28;;;;;;;136.25;88.61;;;;;;;23.26;45.00;100308.41;457280;116;922677;-74
2022/07/09 00:24:32;;;;;;;140.84;87.85;;;;;;;23.25;44.97;100309.52;457286;116;922581;-74
2022/07/09 00:25:35;;;;;;;140.72;87.57;;;;;;;23.24;44.95;100310.65;457252;114;922828;-74
2022/07/09 00:26:38;;;;;;;132.97;85.29;;;;;;;23.24;44.93;100305.09;457249;115;930320;-75
2022/07/09 00:27:40;;;;;;;121.92;82.50;;;;;;;23.23;44.87;100312.61;457344;115;922629;-74
2022/07/09 00:28:43;;;;;;;128.83;81.60;;;;;;;23.23;44.80;100311.77;457333;115;922542;-74
2022/07/09 00:29:47;;;;;;;122.58;79.04;;;;;;;23.23;44.79;100312.61;455484;115;922601;-74
2022/07/09 00:30:50;;;;;;;130.86;80.48;;;;;;;23.23;44.65;100314.56;446598;118;922570;-75
2022/07/09 00:31:53;;;;;;;126.56;80.70;;;;;;;23.21;44.65;100308.49;455242;116;922539;-75
2022/07/09 00:32:56;;;;;;;125.11;79.29;;;;;;;23.19;44.66;100302.40;455166;116;922535;-74
2022/07/09 00:33:59;;;;;;;121.41;80.42;;;;;;;23.19;44.68;100310.74;456156;116;922894;-75
2022/07/09 00:35:03;;;;;;;123.44;81.86;;;;;;;23.18;44.80;100306.30;457315;116;922839;-74
2022/07/09 00:36:07;;;;;;;123.94;83.88;;;;;;;23.17;44.76;100304.65;457238;114;922876;-75
2022/07/09 00:37:11;;;;;;;130.11;82.63;;;;;;;23.16;44.84;100309.38;457346;116;922912;-74
2022/07/09 00:38:14;;;;;;;125.79;86.82;;;;;;;23.16;44.87;100312.16;457231;115;922636;-74
2022/07/09 00:39:17;;;;;;;135.63;84.86;;;;;;;23.16;44.98;100314.12;457308;116;923129;-74
2022/07/09 00:40:21;;;;;;;140.94;87.76;;;;;;;23.14;45.02;100320.01;457220;114;922560;-74
2022/07/09 00:41:24;;;;;;;147.21;92.04;;;;;;;23.13;45.07;100321.13;457329;115;922551;-74
2022/07/09 00:42:27;;;;;;;136.45;90.07;;;;;;;23.12;45.16;100326.98;457296;116;923558;-74
2022/07/09 00:43:30;;;;;;;151.53;94.05;;;;;;;23.10;45.25;100335.63;457299;115;922807;-75
2022/07/09 00:44:34;;;;;;;163.86;109.69;;;;;;;23.08;45.27;100351.81;457240;116;922560;-74
2022/07/09 00:45:37;;;;;;;198.41;127.05;;;;;;;23.07;45.30;100347.38;457261;114;922524;-74
2022/07/09 00:46:40;;;;;;;181.71;117.37;;;;;;;23.05;45.32;100340.45;457287;116;922905;-75
2022/07/09 00:47:43;;;;;;;175.42;110.00;;;;;;;23.02;45.27;100349.41;457281;115;922539;-74
2022/07/09 00:48:46;;;;;;;168.84;111.21;;;;;;;22.99;45.27;100348.05;457226;116;923472;-74
2022/07/09 00:49:50;;;;;;;185.50;114.77;;;;;;;22.97;45.07;100349.50;457311;115;922613;-74
2022/07/09 00:50:53;;;;;;;184.54;115.46;;;;;;;22.97;45.07;100349.50;457229;115;922530;-74
2022/07/09 00:51:58;;;;;;;181.05;113.70;;;;;;;22.95;45.31;100341.45;457225;115;922576;-74
2022/07/09 00:53:01;;;;;;;178.68;114.85;;;;;;;22.93;45.27;100340.95;457208;116;922639;-74
2022/07/09 00:54:04;;;;;;;178.64;111.95;;;;;;;22.93;45.39;100348.45;457270;115;922550;-75
2022/07/09 00:55:08;;;;;;;185.86;119.94;;;;;;;22.91;45.32;100345.97;457250;116;922579;-75
2022/07/09 00:56:12;;;;;;;188.22;120.16;;;;;;;22.88;45.35;100354.90;457214;114;922593;-75
2022/07/09 00:57:16;;;;;;;200.68;127.91;;;;;;;22.85;45.31;100348.01;457226;116;923030;-75
2022/07/09 00:58:21;;;;;;;203.46;129.17;;;;;;;22.83;45.29;100341.91;457156;115;922603;-75
2022/07/09 00:59:24;;;;;;;209.82;131.55;;;;;;;22.79;45.27;100337.26;457176;116;923186;-75
2022/07/09 01:00:28;;;;;;;222.42;139.90;;;;;;;22.74;45.34;100348.45;457148;116;922616;-75
2022/07/09 01:01:31;;;;;;;195.50;124.29;;;;;;;22.70;45.43;100342.66;457299;116;922700;-75
2022/07/09 01:02:34;;;;;;;204.22;124.41;;;;;;;22.67;45.66;100340.46;457312;115;923025;-75
2022/07/09 01:03:37;;;;;;;219.13;137.86;;;;;;;22.67;45.82;100340.46;457325;115;922618;-75
2022/07/09 01:04:40;;;;;;;240.44;147.81;;;;;;;22.66;45.86;100333.24;457317;115;922558;-75
2022/07/09 01:05:43;;;;;;;249.68;157.86;;;;;;;22.64;45.85;100329.13;457265;114;922680;-75
2022/07/09 01:06:47;;;;;;;260.48;165.46;;;;;;;22.61;45.93;100322.20;459301;115;922625;-75
2022/07/09 01:07:50;;;;;;;274.81;173.69;;;;;;;22.58;45.96;100331.16;461547;115;923585;-75
2022/07/09 01:08:53;;;;;;;237.51;150.51;;;;;;;22.54;46.11;100335.67;461450;115;922711;-75
2022/07/09 01:09:56;;;;;;;221.68;144.36;;;;;;;22.52;46.18;100337.09;461494;115;930657;-75
2022/07/09 01:11:00;;;;;;;253.96;158.42;;;;;;;22.50;46.42;100334.59;461568;115;922659;-75
2022/07/09 01:12:04;;;;;;;259.49;164.25;;;;;;;22.51;46.60;100333.48;461472;115;922546;-75
2022/07/09 01:13:08;;;;;;;252.17;163.13;;;;;;;22.51;46.73;100330.70;461417;115;922992;-75
2022/07/09 01:14:11;;;;;;;253.10;161.48;;;;;;;22.51;46.61;100333.48;461182;114;922603;-75
2022/07/09 01:15:14;;;;;;;319.23;202.73;;;;;;;22.51;46.73;100338.20;453670;117;922928;-75
2022/07/09 01:16:17;;;;;;;332.52;213.38;;;;;;;22.49;46.70;100335.75;453616;117;922958;-75
2022/07/09 01:17:20;;;;;;;336.52;214.78;;;;;;;22.51;46.65;100338.20;449366;118;930401;-75
2022/07/09 01:18:23;;;;;;;339.16;226.13;;;;;;;22.51;46.58;100332.64;449406;117;922633;-75
2022/07/09 01:19:28;;;;;;;344.77;226.84;;;;;;;22.51;46.52;100333.48;449412;117;922694;-75
2022/07/09 01:20:31;;;;;;;356.66;228.57;;;;;;;22.51;46.49;100333.48;449363;116;922532;-76
2022/07/09 01:21:34;;;;;;;356.66;231.78;;;;;;;22.52;46.46;100337.91;449441;118;922559;-74
2022/07/09 01:22:37;;;;;;;362.80;240.75;;;;;;;22.52;46.42;100326.80;449436;118;922537;-74
2022/07/09 01:23:40;;;;;;;359.45;236.59;;;;;;;22.52;46.38;100332.36;449464;117;922518;-75
2022/07/09 01:24:43;;;;;;;367.30;239.63;;;;;;;22.53;46.33;100327.63;449447;118;922971;-75
2022/07/09 01:25:47;;;;;;;360.26;239.43;;;;;;;22.52;46.29;100326.80;449403;116;922693;-75
2022/07/09 01:26:52;;;;;;;377.25;248.96;;;;;;;22.52;46.20;100331.53;449417;117;922979;-75
2022/07/09 01:27:55;;;;;;;383.50;253.06;;;;;;;22.50;46.12;100331.81;449310;118;922615;-74
2022/07/09 01:28:58;;;;;;;381.84;252.38;;;;;;;22.46;45.92;100331.60;449473;118;922552;-75
2022/07/09 01:30:02;;;;;;;379.31;251.91;;;;;;;22.43;45.85;100334.16;454777;115;922881;-75
2022/07/09 01:31:05;;;;;;;377.92;250.18;;;;;;;22.40;45.78;100330.02;455058;114;923140;-75
2022/07/09 01:32:08;;;;;;;378.02;248.89;;;;;;;22.37;45.75;100330.62;455083;116;929977;-75
2022/07/09 01:33:12;;;;;;;368.29;247.02;;;;;;;22.34;45.79;100333.16;455185;116;923029;-76
2022/07/09 01:34:15;;;;;;;369.33;250.67;;;;;;;22.32;45.84;100332.65;456614;114;922558;-75
2022/07/09 01:35:19;;;;;;;369.74;242.86;;;;;;;22.31;45.86;100330.99;457268;114;922567;-75
2022/07/09 01:36:24;;;;;;;373.08;243.90;;;;;;;22.28;45.73;100334.34;456742;115;922949;-75
2022/07/09 01:37:27;;;;;;;364.32;242.74;;;;;;;22.26;45.74;100328.29;457320;115;922557;-75
2022/07/09 01:38:30;;;;;;;374.56;242.44;;;;;;;22.26;45.74;100331.06;457381;115;922652;-75
2022/07/09 01:39:34;;;;;;;373.77;241.01;;;;;;;22.25;45.79;100330.23;457219;116;922572;-75
2022/07/09 01:40:37;;;;;;;351.75;238.50;;;;;;;22.26;45.90;100329.11;457269;114;922532;-75
2022/07/09 01:41:40;;;;;;;366.34;244.16;;;;;;;22.27;45.99;100327.17;457345;116;922568;-75
2022/07/09 01:42:43;;;;;;;362.56;241.10;;;;;;;22.29;46.01;100322.95;457293;116;922570;-74
2022/07/09 01:43:46;;;;;;;363.46;237.00;;;;;;;22.31;45.97;100331.83;457312;116;922721;-74
2022/07/09 01:44:49;;;;;;;363.05;240.13;;;;;;;22.33;46.01;100325.95;457307;116;923490;-74
2022/07/09 01:45:52;;;;;;;365.05;237.15;;;;;;;22.35;45.91;100332.04;457277;114;922646;-74
2022/07/09 01:46:55;;;;;;;363.39;238.32;;;;;;;22.34;45.82;100322.88;457338;115;922482;-74
2022/07/09 01:47:58;;;;;;;357.52;235.02;;;;;;;22.34;45.63;100333.16;457393;115;922520;-74
2022/07/09 01:49:01;;;;;;;351.12;232.46;;;;;;;22.31;45.54;100329.05;457389;116;922506;-74
2022/07/09 01:50:06;;;;;;;347.77;229.40;;;;;;;22.28;45.46;100323.24;457322;115;922950;-74
2022/07/09 01:51:09;;;;;;;344.99;229.59;;;;;;;22.23;45.49;100323.31;457304;114;922562;-74
2022/07/09 01:52:12;;;;;;;346.82;230.02;;;;;;;22.22;45.73;100333.59;457241;115;922570;-74
2022/07/09 01:53:15;;;;;;;338.72;227.93;;;;;;;22.22;45.75;100325.26;457359;115;923293;-74
2022/07/09 01:54:18;;;;;;;346.99;232.14;;;;;;;22.23;45.79;100329.70;457354;115;922808;-74
2022/07/09 01:55:21;;;;;;;348.39;227.72;;;;;;;22.25;45.81;100330.23;457324;114;922534;-74
2022/07/09 01:56:25;;;;;;;345.15;229.33;;;;;;;22.27;46.34;100325.22;457389;115;923036;-74
2022/07/09 01:57:28;;;;;;;349.07;231.82;;;;;;;22.27;46.34;100325.22;457338;115;922642;-75
2022/07/09 01:58:31;;;;;;;337.39;222.65;;;;;;;22.27;46.01;100322.44;457345;115;923159;-75
2022/07/09 01:59:34;;;;;;;353.48;231.59;;;;;;;22.31;45.98;100325.44;457300;115;922633;-75
2022/07/09 02:00:37;;;;;;;334.40;222.19;;;;;;;22.30;46.02;100324.61;457294;115;923214;-75
2022/07/09 02:01:40;;;;;;;339.52;225.05;;;;;;;22.32;46.01;100321.54;457318;116;922473;-75
2022/07/09 02:02:43;;;;;;;329.41;223.87;;;;;;;22.31;46.02;100320.71;457326;115;922582;-75
2022/07/09 02:03:46;;;;;;;338.44;222.57;;;;;;;22.32;46.03;100322.37;457293;116;922571;-75
2022/07/09 02:04:50;;;;;;;349.26;230.96;;;;;;;22.32;46.12;100319.59;457326;115;922873;-75
2022/07/09 02:05:53;;;;;;;336.34;229.87;;;;;;;22.33;46.14;100324.00;457291;114;922609;-75
2022/07/09 02:06:56;;;;;;;339.12;224.58;;;;;;;22.32;46.12;100322.37;456238;115;922637;-75
2022/07/09 02:07:59;;;;;;;338.64;226.34;;;;;;;22.31;46.12;100319.88;455480;116;922543;-74
2022/07/09 02:09:02;;;;;;;313.07;213.26;;;;;;;22.29;46.26;100319.34;455592;116;922769;-75
2022/07/09 02:10:06;;;;;;;315.00;210.24;;;;;;;22.30;46.41;100323.78;455553;116;923060;-75
2022/07/09 02:11:10;;;;;;;321.84;214.21;;;;;;;22.30;46.55;100318.22;455463;116;922603;-75
2022/07/09 02:12:13;;;;;;;315.64;210.70;;;;;;;22.30;46.56;100318.22;455483;116;922602;-75
2022/07/09 02:13:17;;;;;;;324.31;210.21;;;;;;;22.31;46.73;100323.48;456802;116;922877;-75
2022/07/09 02:14:20;;;;;;;303.82;203.45;;;;;;;22.32;46.70;100318.77;455765;116;922573;-75
2022/07/09 02:15:23;;;;;;;307.14;204.18;;;;;;;22.33;46.76;100324.00;449433;116;922999;-75
2022/07/09 02:16:27;;;;;;;304.44;202.43;;;;;;;22.35;46.84;100323.70;449338;118;922601;-75
2022/07/09 02:17:30;;;;;;;311.16;207.27;;;;;;;22.35;46.86;100324.53;449393;118;922600;-75
2022/07/09 02:18:33;;;;;;;292.69;192.47;;;;;;;22.35;46.88;100321.76;449416;118;922524;-74
2022/07/09 02:19:37;;;;;;;279.46;186.21;;;;;;;22.35;46.92;100323.70;449352;118;923106;-74
2022/07/09 02:20:40;;;;;;;267.15;179.25;;;;;;;22.34;46.99;100325.66;449386;116;930988;-75
2022/07/09 02:21:43;;;;;;;259.79;171.91;;;;;;;22.33;47.08;100324.00;449469;118;922556;-75
2022/07/09 02:22:46;;;;;;;205.76;133.42;;;;;;;22.34;47.16;100319.27;449462;118;922654;-75
2022/07/09 02:23:49;;;;;;;170.18;107.79;;;;;;;22.34;47.24;100328.44;449478;118;922576;-75
2022/07/09 02:24:52;;;;;;;157.07;100.42;;;;;;;22.34;47.30;100325.66;449450;118;922681;-74
2022/07/09 02:25:55;;;;;;;159.02;101.45;;;;;;;22.36;47.29;100330.92;449406;116;923591;-74
2022/07/09 02:26:58;;;;;;;151.17;93.76;;;;;;;22.35;47.35;100334.82;449428;118;923073;-74
2022/07/09 02:28:01;;;;;;;143.62;91.35;;;;;;;22.34;47.32;100324.83;449417;118;922474;-74
2022/07/09 02:29:04;;;;;;;145.85;90.66;;;;;;;22.34;47.29;100324.83;449463;118;922936;-75
2022/07/09 02:30:08;;;;;;;136.09;85.84;;;;;;;22.34;47.32;100324.83;454385;115;922595;-75
2022/07/09 02:31:12;;;;;;;132.66;83.16;;;;;;;22.34;47.32;100327.60;454954;114;930403;-75
2022/07/09 02:32:15;;;;;;;130.88;80.71;;;;;;;22.33;47.31;100323.17;455114;116;922490;-75
2022/07/09 02:33:18;;;;;;;122.96;79.66;;;;;;;22.33;47.35;100323.17;455173;116;922847;-75
2022/07/09 02:34:21;;;;;;;121.51;75.43;;;;;;;22.33;47.40;100323.17;456863;114;922798;-75
2022/07/09 02:35:24;;;;;;;110.12;71.60;;;;;;;22.33;47.44;100323.17;457232;114;922953;-75
2022/07/09 02:36:29;;;;;;;115.52;74.91;;;;;;;22.32;47.49;100322.37;456820;115;930495;-74
2022/07/09 02:37:32;;;;;;;119.56;74.74;;;;;;;22.32;47.51;100324.31;457326;116;922555;-75
2022/07/09 02:38:35;;;;;;;129.09;81.97;;;;;;;22.31;47.50;100323.48;457332;116;922529;-74
2022/07/09 02:39:39;;;;;;;152.21;100.02;;;;;;;22.30;47.54;100323.78;457258;116;922677;-75
2022/07/09 02:40:42;;;;;;;186.92;112.84;;;;;;;22.29;47.48;100324.90;457270;114;922530;-75
2022/07/09 02:41:45;;;;;;;195.24;125.02;;;;;;;22.24;47.35;100317.47;457308;116;922570;-75
2022/07/09 02:42:48;;;;;;;192.09;124.12;;;;;;;22.21;47.32;100325.58;457312;116;922640;-75
2022/07/09 02:43:52;;;;;;;219.07;141.32;;;;;;;22.18;47.35;100323.38;457343;115;922571;-74
2022/07/09 02:44:55;;;;;;;225.74;146.51;;;;;;;22.15;47.32;100321.21;457254;116;922863;-75
2022/07/09 02:45:58;;;;;;;240.24;154.74;;;;;;;22.11;47.25;100318.19;457256;114;922881;-75
2022/07/09 02:47:01;;;;;;;247.41;164.72;;;;;;;22.08;47.19;100315.19;457303;115;922521;-75
2022/07/09 02:48:06;;;;;;;256.12;169.23;;;;;;;22.04;47.12;100315.80;457154;115;922548;-75
2022/07/09 02:49:10;;;;;;;251.34;160.54;;;;;;;22.01;46.97;100313.59;457380;116;922542;-74
2022/07/09 02:50:13;;;;;;;249.95;162.32;;;;;;;21.99;46.99;100317.81;457182;116;922575;-75
2022/07/09 02:51:16;;;;;;;247.17;162.81;;;;;;;21.98;47.12;100316.98;457296;116;922622;-75
2022/07/09 02:52:19;;;;;;;256.69;167.60;;;;;;;21.97;47.14;100315.33;457317;116;922989;-75
2022/07/09 02:53:22;;;;;;;249.03;169.22;;;;;;;21.99;47.10;100318.64;457311;115;922685;-75
2022/07/09 02:54:25;;;;;;;264.76;168.90;;;;;;;21.98;47.09;100316.98;457313;115;922490;-75
2022/07/09 02:55:28;;;;;;;254.43;167.01;;;;;;;21.98;47.15;100316.98;457312;114;922480;-75
2022/07/09 02:56:32;;;;;;;252.00;167.68;;;;;;;21.98;47.26;100314.20;457281;115;922953;-75
2022/07/09 02:57:35;;;;;;;255.46;168.32;;;;;;;22.00;47.35;100323.05;457364;115;922568;-75
2022/07/09 02:58:38;;;;;;;247.05;165.43;;;;;;;22.02;47.48;100319.98;457324;115;922550;-74
2022/07/09 02:59:41;;;;;;;248.65;167.64;;;;;;;22.03;47.52;100322.47;457335;116;922559;-75
2022/07/09 03:00:44;;;;;;;251.62;167.59;;;;;;;22.06;47.46;100312.70;457350;114;922607;-75
2022/07/09 03:01:48;;;;;;;261.59;170.12;;;;;;;22.07;47.40;100319.08;457376;116;922562;-75
2022/07/09 03:02:51;;;;;;;254.33;170.95;;;;;;;22.06;47.41;100318.25;457351;116;922552;-75
2022/07/09 03:03:54;;;;;;;252.96;168.38;;;;;;;22.08;47.52;100323.52;457320;115;922578;-75
2022/07/09 03:04:57;;;;;;;256.97;169.36;;;;;;;22.09;47.61;100317.67;457305;116;923076;-75
2022/07/09 03:06:00;;;;;;;262.08;172.68;;;;;;;22.11;47.62;100320.96;457267;114;923071;-75
2022/07/09 03:07:03;;;;;;;269.77;173.20;;;;;;;22.12;47.66;100316.23;460552;115;922947;-74
2022/07/09 03:08:08;;;;;;;247.06;164.77;;;;;;;22.14;47.62;100316.78;461533;115;922634;-74
2022/07/09 03:09:11;;;;;;;260.12;164.99;;;;;;;22.14;47.72;100317.61;460069;115;922641;-75
2022/07/09 03:10:15;;;;;;;250.82;168.51;;;;;;;22.17;47.73;100321.72;457202;115;923115;-75
2022/07/09 03:11:18;;;;;;;256.83;168.15;;;;;;;22.19;47.78;100311.16;457235;115;922570;-74
2022/07/09 03:12:21;;;;;;;241.54;163.63;;;;;;;22.20;47.74;100312.81;457310;115;922632;-74
2022/07/09 03:13:24;;;;;;;260.33;168.61;;;;;;;22.23;47.68;100317.75;457299;116;922570;-75
2022/07/09 03:14:27;;;;;;;255.26;169.11;;;;;;;22.26;47.59;100323.56;455046;116;922812;-75
2022/07/09 03:15:30;;;;;;;258.09;169.84;;;;;;;22.27;47.48;100316.89;449442;116;922716;-75
2022/07/09 03:16:33;;;;;;;252.15;168.09;;;;;;;22.29;47.39;100313.78;449392;118;922655;-75
2022/07/09 03:17:36;;;;;;;241.97;165.68;;;;;;;22.31;47.18;100314.33;449393;118;923097;-75
2022/07/09 03:18:40;;;;;;;246.84;168.79;;;;;;;22.33;47.13;100318.44;449439;118;922932;-75
2022/07/09 03:19:43;;;;;;;242.84;165.54;;;;;;;22.35;47.07;100320.92;449457;118;922570;-75
2022/07/09 03:20:47;;;;;;;252.87;171.18;;;;;;;22.36;47.05;100312.30;449352;116;922664;-75
2022/07/09 03:21:51;;;;;;;253.87;167.69;;;;;;;22.37;47.04;100305.63;449255;118;922591;-75
2022/07/09 03:22:54;;;;;;;258.83;173.92;;;;;;;22.39;47.12;100308.91;449435;118;922548;-75
2022/07/09 03:23:57;;;;;;;262.12;175.26;;;;;;;22.41;47.07;100314.17;449423;118;923011;-75
2022/07/09 03:25:00;;;;;;;257.72;172.59;;;;;;;22.42;47.07;100311.11;449463;118;922974;-75
2022/07/09 03:26:06;;;;;;;266.91;172.78;;;;;;;22.41;47.06;100309.45;449405;116;922960;-75
2022/07/09 03:27:09;;;;;;;263.76;173.99;;;;;;;22.41;47.13;100308.63;449200;118;922985;-75
2022/07/09 03:28:12;;;;;;;259.63;173.79;;;;;;;22.41;47.30;100311.40;449461;118;923079;-75
2022/07/09 03:29:15;;;;;;;260.94;175.43;;;;;;;22.42;47.25;100313.06;449417;118;922935;-75
2022/07/09 03:30:19;;;;;;;265.90;177.04;;;;;;;22.42;47.32;100315.84;455433;115;922734;-75
2022/07/09 03:31:22;;;;;;;265.16;179.66;;;;;;;22.42;47.33;100313.06;455058;116;930591;-75
2022/07/09 03:32:25;;;;;;;284.79;186.60;;;;;;;22.41;47.45;100311.40;455173;116;922559;-74
2022/07/09 03:33:29;;;;;;;297.32;199.21;;;;;;;22.41;47.63;100308.63;455098;116;922873;-75
2022/07/09 03:34:32;;;;;;;297.51;196.63;;;;;;;22.42;47.64;100311.11;457278;114;922638;-75
2022/07/09 03:35:35;;;;;;;295.06;209.51;;;;;;;22.44;47.76;100317.17;457312;114;922576;-74
2022/07/09 03:36:38;;;;;;;329.33;224.27;;;;;;;22.45;47.73;100304.94;457253;115;922632;-75
2022/07/09 03:37:41;;;;;;;353.58;234.08;;;;;;;22.47;47.61;100307.42;457273;116;923052;-74
2022/07/09 03:38:44;;;;;;;353.66;236.09;;;;;;;22.48;47.39;100300.75;457302;115;922608;-75
2022/07/09 03:39:47;;;;;;;347.63;238.62;;;;;;;22.49;47.20;100305.19;457311;116;923037;-75
2022/07/09 03:40:52;;;;;;;347.10;238.19;;;;;;;22.50;47.05;100311.53;457195;114;923215;-74
2022/07/09 03:41:55;;;;;;;359.92;243.41;;;;;;;22.50;46.60;100304.03;457218;115;923016;-75
2022/07/09 03:42:58;;;;;;;364.77;245.69;;;;;;;22.50;46.60;100304.03;457281;116;922935;-75
2022/07/09 03:44:01;;;;;;;353.15;238.86;;;;;;;22.51;46.68;100310.42;457286;116;923348;-75
2022/07/09 03:45:05;;;;;;;361.18;246.98;;;;;;;22.51;46.53;100310.42;457290;115;922615;-75
2022/07/09 03:46:10;;;;;;;358.21;239.54;;;;;;;22.51;46.50;100304.86;457067;114;922856;-75
2022/07/09 03:47:13;;;;;;;362.51;241.67;;;;;;;22.52;46.58;100309.30;457343;115;923001;-75
2022/07/09 03:48:17;;;;;;;349.23;237.28;;;;;;;22.53;46.72;100306.23;457350;116;922723;-75
2022/07/09 03:49:20;;;;;;;341.35;231.25;;;;;;;22.56;46.80;100308.39;457252;116;922837;-75
2022/07/09 03:50:25;;;;;;;331.72;230.11;;;;;;;22.59;46.86;100316.14;456894;115;930991;-75
2022/07/09 03:51:28;;;;;;;336.40;225.22;;;;;;;22.62;46.84;100307.19;457314;116;922540;-75
2022/07/09 03:52:31;;;;;;;336.04;226.29;;;;;;;22.65;46.71;100306.60;457377;115;922673;-75
2022/07/09 03:53:35;;;;;;;336.12;223.01;;;;;;;22.70;46.64;100311.25;457357;116;922536;-74
2022/07/09 03:54:38;;;;;;;328.74;224.84;;;;;;;22.72;46.67;100312.62;457235;115;922524;-75
2022/07/09 03:55:41;;;;;;;330.30;221.37;;;;;;;22.75;46.66;100317.59;457337;114;923366;-74
2022/07/09 03:56:44;;;;;;;312.72;211.63;;;;;;;22.79;46.70;100306.69;457292;115;922480;-75
2022/07/09 03:57:47;;;;;;;324.12;220.38;;;;;;;22.82;46.57;100308.88;457302;116;922992;-75
2022/07/09 03:58:51;;;;;;;314.37;212.47;;;;;;;22.85;46.53;100306.30;457299;115;922642;-75
2022/07/09 03:59:54;;;;;;;318.44;218.35;;;;;;;22.88;46.48;100310.42;457213;116;922568;-76
2022/07/09 04:00:57;;;;;;;325.42;216.63;;;;;;;22.91;46.44;100309.00;457271;114;922615;-75
2022/07/09 04:02:00;;;;;;;320.59;217.77;;;;;;;22.94;46.48;100302.81;457292;115;922845;-75
2022/07/09 04:03:03;;;;;;;320.09;217.09;;;;;;;22.99;46.13;100300.78;457303;115;923104;-75
2022/07/09 04:04:06;;;;;;;317.61;216.71;;;;;;;22.99;46.13;100300.78;457297;116;922880;-75
2022/07/09 04:05:10;;;;;;;308.51;208.12;;;;;;;23.02;46.30;100302.14;457272;115;923119;-76
2022/07/09 04:06:15;;;;;;;318.44;213.88;;;;;;;23.05;46.15;100298.73;457046;114;923062;-75
2022/07/09 04:07:19;;;;;;;316.62;214.84;;;;;;;23.08;46.02;100295.36;449390;117;923353;-75
2022/07/09 04:08:22;;;;;;;311.83;207.14;;;;;;;23.10;45.84;100293.11;449488;117;922567;-75
2022/07/09 04:09:25;;;;;;;296.34;202.68;;;;;;;23.11;45.60;100301.13;449496;117;922587;-75
2022/07/09 04:10:28;;;;;;;311.95;204.21;;;;;;;23.13;45.46;100300.83;449499;117;922585;-75
2022/07/09 04:11:32;;;;;;;297.09;200.88;;;;;;;23.14;45.43;100302.48;449439;118;923639;-75
2022/07/09 04:12:34;;;;;;;313.77;207.19;;;;;;;23.15;45.45;100298.58;449403;118;922569;-76
2022/07/09 04:13:38;;;;;;;301.71;205.77;;;;;;;23.17;45.32;100304.65;449486;117;922564;-75
2022/07/09 04:14:41;;;;;;;297.93;204.04;;;;;;;23.18;45.26;100303.52;453406;116;922651;-76
2022/07/09 04:15:45;;;;;;;292.89;202.06;;;;;;;23.18;45.18;100300.74;457178;116;923037;-75
2022/07/09 04:16:48;;;;;;;304.96;203.75;;;;;;;23.19;45.24;100297.66;457010;116;923070;-75
2022/07/09 04:17:51;;;;;;;297.76;198.20;;;;;;;23.19;45.11;100311.58;457170;116;922540;-75
2022/07/09 04:18:55;;;;;;;292.42;197.04;;;;;;;23.22;45.04;100305.39;457194;116;923402;-75
2022/07/09 04:19:58;;;;;;;293.60;197.29;;;;;;;23.23;45.02;100312.61;457210;116;922639;-75
2022/07/09 04:21:01;;;;;;;284.31;192.61;;;;;;;23.25;45.05;100313.14;457174;116;922611;-75
2022/07/09 04:22:05;;;;;;;287.17;195.05;;;;;;;23.28;45.02;100308.90;457215;116;922547;-75
2022/07/09 04:23:08;;;;;;;290.62;196.72;;;;;;;23.32;45.06;100300.79;457100;116;922584;-75
2022/07/09 04:24:11;;;;;;;283.89;188.96;;;;;;;23.35;45.01;100303.77;457168;116;922775;-75
2022/07/09 04:25:14;;;;;;;278.40;187.34;;;;;;;23.37;44.91;100307.09;457187;116;922574;-75
2022/07/09 04:26:18;;;;;;;278.92;190.24;;;;;;;23.41;44.84;100304.51;457081;116;923143;-76
2022/07/09 04:27:21;;;;;;;285.66;193.14;;;;;;;23.43;45.05;100307.81;457187;116;923209;-75
2022/07/09 04:28:24;;;;;;;283.68;190.52;;;;;;;23.46;45.03;100299.70;457191;116;922566;-76
2022/07/09 04:29:27;;;;;;;270.56;185.71;;;;;;;23.48;45.07;100303.02;456712;116;923009;-75
2022/07/09 04:30:32;;;;;;;272.58;183.34;;;;;;;23.51;45.04;100307.95;455068;114;922660;-75
2022/07/09 04:31:35;;;;;;;273.77;181.71;;;;;;;23.53;44.99;100308.48;455056;116;930764;-75
2022/07/09 04:32:38;;;;;;;260.06;181.22;;;;;;;23.56;44.93;100316.20;455152;116;922526;-75
2022/07/09 04:33:42;;;;;;;269.05;183.14;;;;;;;23.59;44.88;100303.64;455483;114;922565;-75
2022/07/09 04:34:45;;;;;;;272.80;183.52;;;;;;;23.62;44.86;100303.84;457267;116;922439;-75
2022/07/09 04:35:48;;;;;;;270.10;182.82;;;;;;;23.65;44.83;100307.98;457344;114;922584;-75
2022/07/09 04:36:52;;;;;;;279.75;187.51;;;;;;;23.67;44.75;100298.17;457339;115;922501;-76
2022/07/09 04:37:55;;;;;;;283.34;187.22;;;;;;;23.71;44.72;100298.37;457356;116;923228;-73